sensor_id;sensor_type;location;lat;lon;timestamp;P1;durP1;ratioP1;P2;durP2;ratioP2
15643;SDS011;7921;43.586;1.408;2022-12-08T00:02:02;18.43;;;16.77;;
15643;SDS011;7921;43.586;1.408;2022-12-08T00:04:27;18.80;;;17.00;;
15643;SDS011;7921;43.586;1.408;2022-12-08T00:06:53;17.83;;;16.23;;
15643;SDS011;7921;43.586;1.408;2022-12-08T00:09:37;19.30;;;17.30;;
15643;SDS011;7921;43.586;1.408;2022-12-08T00:14:34;15.77;;;13.20;;
15643;SDS011;7921;43.586;1.408;2022-12-08T00:17:04;17.50;;;15.83;;
15643;SDS011;7921;43.586;1.408;2022-12-08T00:19:30;17.00;;;13.10;;
15643;SDS011;7921;43.586;1.408;2022-12-08T00:21:56;17.27;;;13.77;;
15643;SDS011;7921;43.586;1.408;2022-12-08T00:24:22;15.93;;;13.23;;
15643;SDS011;7921;43.586;1.408;2022-12-08T00:26:48;15.00;;;13.40;;
15643;SDS011;7921;43.586;1.408;2022-12-08T00:29:14;18.00;;;16.30;;
15643;SDS011;7921;43.586;1.408;2022-12-08T00:31:39;16.63;;;15.13;;
15643;SDS011;7921;43.586;1.408;2022-12-08T00:34:05;17.90;;;16.30;;
15643;SDS011;7921;43.586;1.408;2022-12-08T00:36:30;15.80;;;14.20;;
15643;SDS011;7921;43.586;1.408;2022-12-08T00:38:56;18.17;;;14.13;;
15643;SDS011;7921;43.586;1.408;2022-12-08T00:41:23;17.60;;;15.47;;
15643;SDS011;7921;43.586;1.408;2022-12-08T00:44:08;21.27;;;16.73;;
15643;SDS011;7921;43.586;1.408;2022-12-08T00:46:34;22.73;;;20.70;;
15643;SDS011;7921;43.586;1.408;2022-12-08T00:49:00;21.83;;;19.90;;
15643;SDS011;7921;43.586;1.408;2022-12-08T00:51:26;22.23;;;20.13;;
15643;SDS011;7921;43.586;1.408;2022-12-08T00:53:51;19.77;;;18.07;;
15643;SDS011;7921;43.586;1.408;2022-12-08T00:56:17;19.10;;;17.40;;
15643;SDS011;7921;43.586;1.408;2022-12-08T00:58:42;19.30;;;17.50;;
15643;SDS011;7921;43.586;1.408;2022-12-08T01:01:11;17.50;;;15.90;;
15643;SDS011;7921;43.586;1.408;2022-12-08T01:03:37;16.90;;;15.27;;
15643;SDS011;7921;43.586;1.408;2022-12-08T01:06:03;17.03;;;15.33;;
15643;SDS011;7921;43.586;1.408;2022-12-08T01:08:28;17.93;;;16.23;;
15643;SDS011;7921;43.586;1.408;2022-12-08T01:10:54;14.03;;;12.73;;
15643;SDS011;7921;43.586;1.408;2022-12-08T01:13:19;15.43;;;13.97;;
15643;SDS011;7921;43.586;1.408;2022-12-08T01:15:44;14.53;;;13.13;;
15643;SDS011;7921;43.586;1.408;2022-12-08T01:18:10;12.93;;;11.83;;
15643;SDS011;7921;43.586;1.408;2022-12-08T01:20:35;10.40;;;9.47;;
15643;SDS011;7921;43.586;1.408;2022-12-08T01:23:01;11.10;;;10.00;;
15643;SDS011;7921;43.586;1.408;2022-12-08T01:25:26;10.43;;;9.43;;
15643;SDS011;7921;43.586;1.408;2022-12-08T01:27:52;10.80;;;9.80;;
15643;SDS011;7921;43.586;1.408;2022-12-08T01:30:18;10.70;;;9.80;;
15643;SDS011;7921;43.586;1.408;2022-12-08T01:32:43;10.40;;;9.60;;
15643;SDS011;7921;43.586;1.408;2022-12-08T01:35:09;10.93;;;9.93;;
15643;SDS011;7921;43.586;1.408;2022-12-08T01:37:34;9.93;;;8.90;;
15643;SDS011;7921;43.586;1.408;2022-12-08T01:40:00;10.17;;;9.37;;
15643;SDS011;7921;43.586;1.408;2022-12-08T01:42:25;10.30;;;9.43;;
15643;SDS011;7921;43.586;1.408;2022-12-08T01:44:52;10.10;;;9.20;;
15643;SDS011;7921;43.586;1.408;2022-12-08T01:47:20;10.23;;;9.23;;
15643;SDS011;7921;43.586;1.408;2022-12-08T01:49:47;10.03;;;9.13;;
15643;SDS011;7921;43.586;1.408;2022-12-08T01:52:13;10.27;;;9.33;;
15643;SDS011;7921;43.586;1.408;2022-12-08T01:54:44;9.33;;;8.47;;
15643;SDS011;7921;43.586;1.408;2022-12-08T01:57:13;10.30;;;9.43;;
15643;SDS011;7921;43.586;1.408;2022-12-08T01:59:56;9.87;;;8.97;;
15643;SDS011;7921;43.586;1.408;2022-12-08T02:02:30;9.93;;;9.07;;
15643;SDS011;7921;43.586;1.408;2022-12-08T02:04:58;10.07;;;9.27;;
15643;SDS011;7921;43.586;1.408;2022-12-08T02:07:24;9.43;;;8.63;;
15643;SDS011;7921;43.586;1.408;2022-12-08T02:09:49;9.10;;;8.33;;
15643;SDS011;7921;43.586;1.408;2022-12-08T02:12:15;8.37;;;7.57;;
15643;SDS011;7921;43.586;1.408;2022-12-08T02:14:40;8.03;;;7.43;;
15643;SDS011;7921;43.586;1.408;2022-12-08T02:17:29;7.63;;;7.03;;
15643;SDS011;7921;43.586;1.408;2022-12-08T02:20:32;8.00;;;7.40;;
15643;SDS011;7921;43.586;1.408;2022-12-08T02:28:21;7.30;;;6.70;;
15643;SDS011;7921;43.586;1.408;2022-12-08T02:39:27;7.32;;;6.75;;
15643;SDS011;7921;43.586;1.408;2022-12-08T02:42:16;7.20;;;6.57;;
15643;SDS011;7921;43.586;1.408;2022-12-08T02:45:02;6.20;;;5.70;;
15643;SDS011;7921;43.586;1.408;2022-12-08T02:47:33;6.30;;;5.80;;
15643;SDS011;7921;43.586;1.408;2022-12-08T02:49:59;7.17;;;6.43;;
15643;SDS011;7921;43.586;1.408;2022-12-08T02:54:54;6.37;;;5.77;;
15643;SDS011;7921;43.586;1.408;2022-12-08T03:05:47;5.70;;;5.30;;
15643;SDS011;7921;43.586;1.408;2022-12-08T03:11:03;5.97;;;5.47;;
15643;SDS011;7921;43.586;1.408;2022-12-08T03:13:52;5.73;;;5.23;;
15643;SDS011;7921;43.586;1.408;2022-12-08T03:16:21;5.60;;;5.20;;
15643;SDS011;7921;43.586;1.408;2022-12-08T03:18:52;5.93;;;5.43;;
15643;SDS011;7921;43.586;1.408;2022-12-08T03:21:22;5.70;;;5.20;;
15643;SDS011;7921;43.586;1.408;2022-12-08T03:23:49;5.97;;;5.20;;
15643;SDS011;7921;43.586;1.408;2022-12-08T03:26:29;5.53;;;5.03;;
15643;SDS011;7921;43.586;1.408;2022-12-08T03:28:59;5.50;;;5.10;;
15643;SDS011;7921;43.586;1.408;2022-12-08T03:31:25;6.20;;;5.60;;
15643;SDS011;7921;43.586;1.408;2022-12-08T03:33:53;5.97;;;5.47;;
15643;SDS011;7921;43.586;1.408;2022-12-08T03:36:20;5.90;;;5.50;;
15643;SDS011;7921;43.586;1.408;2022-12-08T03:38:48;5.90;;;5.50;;
15643;SDS011;7921;43.586;1.408;2022-12-08T03:41:16;6.03;;;5.53;;
15643;SDS011;7921;43.586;1.408;2022-12-08T03:43:45;7.50;;;5.83;;
15643;SDS011;7921;43.586;1.408;2022-12-08T03:46:17;6.00;;;5.50;;
15643;SDS011;7921;43.586;1.408;2022-12-08T03:48:44;6.60;;;6.10;;
15643;SDS011;7921;43.586;1.408;2022-12-08T03:51:09;6.33;;;5.73;;
15643;SDS011;7921;43.586;1.408;2022-12-08T03:53:35;6.77;;;6.13;;
15643;SDS011;7921;43.586;1.408;2022-12-08T03:56:02;6.50;;;5.90;;
15643;SDS011;7921;43.586;1.408;2022-12-08T03:58:29;6.33;;;5.80;;
15643;SDS011;7921;43.586;1.408;2022-12-08T04:00:55;6.20;;;5.70;;
15643;SDS011;7921;43.586;1.408;2022-12-08T04:03:20;6.10;;;5.60;;
15643;SDS011;7921;43.586;1.408;2022-12-08T04:05:45;6.73;;;6.23;;
15643;SDS011;7921;43.586;1.408;2022-12-08T04:08:11;6.50;;;6.00;;
15643;SDS011;7921;43.586;1.408;2022-12-08T04:10:36;7.40;;;6.80;;
15643;SDS011;7921;43.586;1.408;2022-12-08T04:13:02;7.40;;;6.83;;
15643;SDS011;7921;43.586;1.408;2022-12-08T04:15:27;6.67;;;6.13;;
15643;SDS011;7921;43.586;1.408;2022-12-08T04:17:52;7.07;;;6.47;;
15643;SDS011;7921;43.586;1.408;2022-12-08T04:20:18;7.80;;;7.10;;
15643;SDS011;7921;43.586;1.408;2022-12-08T04:22:43;7.33;;;6.73;;
15643;SDS011;7921;43.586;1.408;2022-12-08T04:25:08;7.70;;;7.07;;
15643;SDS011;7921;43.586;1.408;2022-12-08T04:27:34;7.60;;;7.00;;
15643;SDS011;7921;43.586;1.408;2022-12-08T04:29:59;7.47;;;6.77;;
15643;SDS011;7921;43.586;1.408;2022-12-08T04:32:25;7.90;;;7.30;;
15643;SDS011;7921;43.586;1.408;2022-12-08T04:34:50;7.33;;;6.77;;
15643;SDS011;7921;43.586;1.408;2022-12-08T04:37:15;8.10;;;7.30;;
15643;SDS011;7921;43.586;1.408;2022-12-08T04:39:41;8.30;;;7.60;;
15643;SDS011;7921;43.586;1.408;2022-12-08T04:42:06;7.83;;;7.03;;
15643;SDS011;7921;43.586;1.408;2022-12-08T04:44:32;7.73;;;6.80;;
15643;SDS011;7921;43.586;1.408;2022-12-08T04:46:57;7.23;;;6.73;;
15643;SDS011;7921;43.586;1.408;2022-12-08T04:49:22;7.30;;;6.70;;
15643;SDS011;7921;43.586;1.408;2022-12-08T04:51:48;8.03;;;7.33;;
15643;SDS011;7921;43.586;1.408;2022-12-08T04:54:13;7.33;;;6.83;;
15643;SDS011;7921;43.586;1.408;2022-12-08T04:56:39;8.20;;;7.60;;
15643;SDS011;7921;43.586;1.408;2022-12-08T04:59:04;7.00;;;6.50;;
15643;SDS011;7921;43.586;1.408;2022-12-08T05:01:29;7.17;;;6.57;;
15643;SDS011;7921;43.586;1.408;2022-12-08T05:03:55;7.67;;;7.00;;
15643;SDS011;7921;43.586;1.408;2022-12-08T05:06:20;6.90;;;6.30;;
15643;SDS011;7921;43.586;1.408;2022-12-08T05:08:46;7.70;;;7.00;;
15643;SDS011;7921;43.586;1.408;2022-12-08T05:11:11;8.13;;;7.43;;
15643;SDS011;7921;43.586;1.408;2022-12-08T05:13:37;7.20;;;6.60;;
15643;SDS011;7921;43.586;1.408;2022-12-08T05:16:10;7.60;;;7.00;;
15643;SDS011;7921;43.586;1.408;2022-12-08T05:18:36;7.17;;;6.57;;
15643;SDS011;7921;43.586;1.408;2022-12-08T05:21:02;8.43;;;7.63;;
15643;SDS011;7921;43.586;1.408;2022-12-08T05:23:29;7.73;;;7.13;;
15643;SDS011;7921;43.586;1.408;2022-12-08T05:25:55;7.83;;;7.23;;
15643;SDS011;7921;43.586;1.408;2022-12-08T05:28:20;7.40;;;6.80;;
15643;SDS011;7921;43.586;1.408;2022-12-08T05:30:46;7.40;;;6.87;;
15643;SDS011;7921;43.586;1.408;2022-12-08T05:33:11;7.70;;;7.10;;
15643;SDS011;7921;43.586;1.408;2022-12-08T05:35:37;8.23;;;7.50;;
15643;SDS011;7921;43.586;1.408;2022-12-08T05:38:02;8.10;;;7.40;;
15643;SDS011;7921;43.586;1.408;2022-12-08T05:40:28;8.63;;;7.90;;
15643;SDS011;7921;43.586;1.408;2022-12-08T05:42:53;8.27;;;7.57;;
15643;SDS011;7921;43.586;1.408;2022-12-08T05:45:19;8.30;;;7.60;;
15643;SDS011;7921;43.586;1.408;2022-12-08T05:47:44;8.30;;;7.50;;
15643;SDS011;7921;43.586;1.408;2022-12-08T05:50:09;8.63;;;7.93;;
15643;SDS011;7921;43.586;1.408;2022-12-08T05:52:35;8.20;;;7.37;;
15643;SDS011;7921;43.586;1.408;2022-12-08T05:55:01;8.37;;;7.67;;
15643;SDS011;7921;43.586;1.408;2022-12-08T05:57:26;9.40;;;8.27;;
15643;SDS011;7921;43.586;1.408;2022-12-08T05:59:52;8.40;;;7.80;;
15643;SDS011;7921;43.586;1.408;2022-12-08T06:02:17;8.80;;;7.90;;
15643;SDS011;7921;43.586;1.408;2022-12-08T06:04:43;9.07;;;8.27;;
15643;SDS011;7921;43.586;1.408;2022-12-08T06:07:08;8.70;;;7.90;;
15643;SDS011;7921;43.586;1.408;2022-12-08T06:09:34;9.43;;;8.53;;
15643;SDS011;7921;43.586;1.408;2022-12-08T06:11:59;10.33;;;9.30;;
15643;SDS011;7921;43.586;1.408;2022-12-08T06:14:25;11.13;;;9.20;;
15643;SDS011;7921;43.586;1.408;2022-12-08T06:16:51;10.40;;;9.50;;
15643;SDS011;7921;43.586;1.408;2022-12-08T06:19:16;9.43;;;8.63;;
15643;SDS011;7921;43.586;1.408;2022-12-08T06:21:42;10.43;;;9.07;;
15643;SDS011;7921;43.586;1.408;2022-12-08T06:24:07;11.37;;;10.27;;
15643;SDS011;7921;43.586;1.408;2022-12-08T06:26:32;10.93;;;9.70;;
15643;SDS011;7921;43.586;1.408;2022-12-08T06:29:00;10.97;;;9.97;;
15643;SDS011;7921;43.586;1.408;2022-12-08T06:31:26;11.23;;;10.33;;
15643;SDS011;7921;43.586;1.408;2022-12-08T06:33:52;11.17;;;10.07;;
15643;SDS011;7921;43.586;1.408;2022-12-08T06:36:20;11.83;;;10.80;;
15643;SDS011;7921;43.586;1.408;2022-12-08T06:38:47;11.07;;;10.07;;
15643;SDS011;7921;43.586;1.408;2022-12-08T06:41:13;11.97;;;10.97;;
15643;SDS011;7921;43.586;1.408;2022-12-08T06:43:38;11.70;;;10.70;;
15643;SDS011;7921;43.586;1.408;2022-12-08T06:46:05;12.70;;;11.50;;
15643;SDS011;7921;43.586;1.408;2022-12-08T06:48:32;11.90;;;10.73;;
15643;SDS011;7921;43.586;1.408;2022-12-08T06:51:04;12.60;;;11.30;;
15643;SDS011;7921;43.586;1.408;2022-12-08T06:53:39;11.73;;;10.47;;
15643;SDS011;7921;43.586;1.408;2022-12-08T06:56:05;13.03;;;11.73;;
15643;SDS011;7921;43.586;1.408;2022-12-08T06:58:31;12.63;;;11.43;;
15643;SDS011;7921;43.586;1.408;2022-12-08T07:01:01;13.23;;;11.93;;
15643;SDS011;7921;43.586;1.408;2022-12-08T07:03:28;13.80;;;12.27;;
15643;SDS011;7921;43.586;1.408;2022-12-08T07:05:54;13.20;;;11.90;;
15643;SDS011;7921;43.586;1.408;2022-12-08T07:08:20;13.30;;;12.03;;
15643;SDS011;7921;43.586;1.408;2022-12-08T07:10:46;13.63;;;12.40;;
15643;SDS011;7921;43.586;1.408;2022-12-08T07:13:11;14.23;;;12.90;;
15643;SDS011;7921;43.586;1.408;2022-12-08T07:15:36;14.63;;;12.37;;
15643;SDS011;7921;43.586;1.408;2022-12-08T07:18:02;13.53;;;12.13;;
15643;SDS011;7921;43.586;1.408;2022-12-08T07:20:27;12.07;;;10.97;;
15643;SDS011;7921;43.586;1.408;2022-12-08T07:22:53;12.33;;;11.13;;
15643;SDS011;7921;43.586;1.408;2022-12-08T07:25:19;13.33;;;11.73;;
15643;SDS011;7921;43.586;1.408;2022-12-08T07:27:45;11.40;;;10.40;;
15643;SDS011;7921;43.586;1.408;2022-12-08T07:30:11;12.37;;;11.13;;
15643;SDS011;7921;43.586;1.408;2022-12-08T07:32:37;12.30;;;11.10;;
15643;SDS011;7921;43.586;1.408;2022-12-08T07:35:03;13.33;;;12.00;;
15643;SDS011;7921;43.586;1.408;2022-12-08T07:37:29;11.87;;;10.67;;
15643;SDS011;7921;43.586;1.408;2022-12-08T07:39:57;12.17;;;10.93;;
15643;SDS011;7921;43.586;1.408;2022-12-08T07:42:22;12.87;;;11.53;;
15643;SDS011;7921;43.586;1.408;2022-12-08T07:44:47;11.97;;;10.77;;
15643;SDS011;7921;43.586;1.408;2022-12-08T07:47:13;12.90;;;10.90;;
15643;SDS011;7921;43.586;1.408;2022-12-08T07:49:38;11.67;;;10.50;;
15643;SDS011;7921;43.586;1.408;2022-12-08T07:52:05;11.90;;;10.73;;
15643;SDS011;7921;43.586;1.408;2022-12-08T07:54:30;12.63;;;11.33;;
15643;SDS011;7921;43.586;1.408;2022-12-08T07:56:56;11.70;;;10.57;;
15643;SDS011;7921;43.586;1.408;2022-12-08T07:59:22;11.03;;;9.97;;
15643;SDS011;7921;43.586;1.408;2022-12-08T08:01:47;11.90;;;10.80;;
15643;SDS011;7921;43.586;1.408;2022-12-08T08:04:12;10.73;;;9.73;;
15643;SDS011;7921;43.586;1.408;2022-12-08T08:06:38;10.83;;;9.83;;
15643;SDS011;7921;43.586;1.408;2022-12-08T08:09:03;10.30;;;9.33;;
15643;SDS011;7921;43.586;1.408;2022-12-08T08:11:29;10.87;;;9.73;;
15643;SDS011;7921;43.586;1.408;2022-12-08T08:13:55;11.10;;;10.00;;
15643;SDS011;7921;43.586;1.408;2022-12-08T08:16:20;10.30;;;9.30;;
15643;SDS011;7921;43.586;1.408;2022-12-08T08:18:46;10.67;;;9.67;;
15643;SDS011;7921;43.586;1.408;2022-12-08T08:21:13;10.77;;;9.83;;
15643;SDS011;7921;43.586;1.408;2022-12-08T08:23:38;10.57;;;9.57;;
15643;SDS011;7921;43.586;1.408;2022-12-08T08:26:04;11.50;;;10.30;;
15643;SDS011;7921;43.586;1.408;2022-12-08T08:28:29;12.23;;;10.40;;
15643;SDS011;7921;43.586;1.408;2022-12-08T08:30:56;12.73;;;11.48;;
15643;SDS011;7921;43.586;1.408;2022-12-08T08:33:21;11.87;;;10.77;;
15643;SDS011;7921;43.586;1.408;2022-12-08T08:35:47;12.53;;;11.30;;
15643;SDS011;7921;43.586;1.408;2022-12-08T08:38:12;11.97;;;10.87;;
15643;SDS011;7921;43.586;1.408;2022-12-08T08:40:38;12.07;;;10.70;;
15643;SDS011;7921;43.586;1.408;2022-12-08T08:43:04;11.93;;;10.73;;
15643;SDS011;7921;43.586;1.408;2022-12-08T08:45:30;11.63;;;10.63;;
15643;SDS011;7921;43.586;1.408;2022-12-08T08:47:56;12.30;;;11.03;;
15643;SDS011;7921;43.586;1.408;2022-12-08T08:50:21;11.67;;;10.57;;
15643;SDS011;7921;43.586;1.408;2022-12-08T08:52:47;12.27;;;10.97;;
15643;SDS011;7921;43.586;1.408;2022-12-08T08:55:12;11.77;;;10.63;;
15643;SDS011;7921;43.586;1.408;2022-12-08T08:57:38;11.17;;;10.07;;
15643;SDS011;7921;43.586;1.408;2022-12-08T09:00:04;11.83;;;10.73;;
15643;SDS011;7921;43.586;1.408;2022-12-08T09:02:30;13.13;;;11.07;;
15643;SDS011;7921;43.586;1.408;2022-12-08T09:04:55;11.63;;;10.43;;
15643;SDS011;7921;43.586;1.408;2022-12-08T09:07:21;11.57;;;10.50;;
15643;SDS011;7921;43.586;1.408;2022-12-08T09:09:46;11.07;;;10.07;;
15643;SDS011;7921;43.586;1.408;2022-12-08T09:12:12;11.00;;;10.07;;
15643;SDS011;7921;43.586;1.408;2022-12-08T09:14:37;10.83;;;9.63;;
15643;SDS011;7921;43.586;1.408;2022-12-08T09:17:03;10.83;;;9.83;;
15643;SDS011;7921;43.586;1.408;2022-12-08T09:19:29;10.77;;;9.67;;
15643;SDS011;7921;43.586;1.408;2022-12-08T09:21:54;9.53;;;8.73;;
15643;SDS011;7921;43.586;1.408;2022-12-08T09:24:19;10.37;;;9.47;;
15643;SDS011;7921;43.586;1.408;2022-12-08T09:26:45;10.97;;;9.97;;
15643;SDS011;7921;43.586;1.408;2022-12-08T09:29:11;9.80;;;8.80;;
15643;SDS011;7921;43.586;1.408;2022-12-08T09:31:38;9.93;;;9.03;;
15643;SDS011;7921;43.586;1.408;2022-12-08T09:34:04;8.90;;;8.10;;
15643;SDS011;7921;43.586;1.408;2022-12-08T09:36:29;9.27;;;8.47;;
15643;SDS011;7921;43.586;1.408;2022-12-08T09:38:55;9.47;;;8.53;;
15643;SDS011;7921;43.586;1.408;2022-12-08T09:41:30;9.17;;;8.47;;
15643;SDS011;7921;43.586;1.408;2022-12-08T09:46:32;10.13;;;9.13;;
15643;SDS011;7921;43.586;1.408;2022-12-08T09:48:58;9.57;;;8.57;;
15643;SDS011;7921;43.586;1.408;2022-12-08T09:51:25;10.53;;;9.53;;
15643;SDS011;7921;43.586;1.408;2022-12-08T09:54:37;10.20;;;9.20;;
15643;SDS011;7921;43.586;1.408;2022-12-08T09:56:48;9.60;;;8.70;;
15643;SDS011;7921;43.586;1.408;2022-12-08T09:59:27;9.33;;;8.53;;
15643;SDS011;7921;43.586;1.408;2022-12-08T10:01:55;9.27;;;8.43;;
15643;SDS011;7921;43.586;1.408;2022-12-08T10:04:31;8.77;;;7.93;;
15643;SDS011;7921;43.586;1.408;2022-12-08T10:17:53;8.03;;;7.23;;
15643;SDS011;7921;43.586;1.408;2022-12-08T10:20:20;8.40;;;7.60;;
15643;SDS011;7921;43.586;1.408;2022-12-08T10:22:52;7.87;;;7.10;;
15643;SDS011;7921;43.586;1.408;2022-12-08T10:25:24;7.33;;;6.13;;
15643;SDS011;7921;43.586;1.408;2022-12-08T10:27:54;6.13;;;5.63;;
15643;SDS011;7921;43.586;1.408;2022-12-08T10:30:21;6.30;;;5.73;;
15643;SDS011;7921;43.586;1.408;2022-12-08T10:32:50;7.07;;;5.93;;
15643;SDS011;7921;43.586;1.408;2022-12-08T10:35:18;5.80;;;5.30;;
15643;SDS011;7921;43.586;1.408;2022-12-08T10:37:55;6.87;;;6.27;;
15643;SDS011;7921;43.586;1.408;2022-12-08T10:40:27;7.00;;;6.40;;
15643;SDS011;7921;43.586;1.408;2022-12-08T10:42:55;8.70;;;6.90;;
15643;SDS011;7921;43.586;1.408;2022-12-08T10:48:33;5.17;;;4.77;;
15643;SDS011;7921;43.586;1.408;2022-12-08T10:50:54;5.60;;;5.10;;
15643;SDS011;7921;43.586;1.408;2022-12-08T10:53:24;5.70;;;5.20;;
15643;SDS011;7921;43.586;1.408;2022-12-08T11:00:58;4.63;;;4.23;;
15643;SDS011;7921;43.586;1.408;2022-12-08T11:03:30;4.90;;;4.40;;
15643;SDS011;7921;43.586;1.408;2022-12-08T11:06:00;4.90;;;4.50;;
15643;SDS011;7921;43.586;1.408;2022-12-08T11:08:33;5.00;;;4.60;;
15643;SDS011;7921;43.586;1.408;2022-12-08T11:11:18;4.97;;;4.57;;
15643;SDS011;7921;43.586;1.408;2022-12-08T11:13:44;4.83;;;4.43;;
15643;SDS011;7921;43.586;1.408;2022-12-08T11:16:12;4.70;;;4.30;;
15643;SDS011;7921;43.586;1.408;2022-12-08T11:18:40;4.43;;;4.03;;
15643;SDS011;7921;43.586;1.408;2022-12-08T11:21:15;4.77;;;4.27;;
15643;SDS011;7921;43.586;1.408;2022-12-08T11:23:44;4.10;;;3.70;;
15643;SDS011;7921;43.586;1.408;2022-12-08T11:26:14;4.37;;;4.07;;
15643;SDS011;7921;43.586;1.408;2022-12-08T11:28:43;4.50;;;4.10;;
15643;SDS011;7921;43.586;1.408;2022-12-08T11:31:54;4.03;;;3.63;;
15643;SDS011;7921;43.586;1.408;2022-12-08T11:33:58;4.27;;;3.97;;
15643;SDS011;7921;43.586;1.408;2022-12-08T11:36:24;4.50;;;4.10;;
15643;SDS011;7921;43.586;1.408;2022-12-08T11:38:50;5.03;;;4.00;;
15643;SDS011;7921;43.586;1.408;2022-12-08T11:41:26;4.03;;;3.63;;
15643;SDS011;7921;43.586;1.408;2022-12-08T11:44:05;4.70;;;4.30;;
15643;SDS011;7921;43.586;1.408;2022-12-08T11:46:39;4.20;;;3.90;;
15643;SDS011;7921;43.586;1.408;2022-12-08T11:49:11;4.10;;;3.80;;
15643;SDS011;7921;43.586;1.408;2022-12-08T11:54:23;4.53;;;4.13;;
15643;SDS011;7921;43.586;1.408;2022-12-08T11:56:53;4.57;;;4.17;;
15643;SDS011;7921;43.586;1.408;2022-12-08T11:59:36;4.47;;;4.07;;
15643;SDS011;7921;43.586;1.408;2022-12-08T12:02:06;4.97;;;4.23;;
15643;SDS011;7921;43.586;1.408;2022-12-08T12:18:22;4.60;;;3.93;;
15643;SDS011;7921;43.586;1.408;2022-12-08T12:26:29;4.90;;;4.57;;
15643;SDS011;7921;43.586;1.408;2022-12-08T12:29:04;4.63;;;4.23;;
15643;SDS011;7921;43.586;1.408;2022-12-08T12:31:35;5.00;;;4.40;;
15643;SDS011;7921;43.586;1.408;2022-12-08T12:34:48;4.60;;;4.20;;
15643;SDS011;7921;43.586;1.408;2022-12-08T12:36:56;4.77;;;4.37;;
15643;SDS011;7921;43.586;1.408;2022-12-08T12:39:24;6.47;;;4.33;;
15643;SDS011;7921;43.586;1.408;2022-12-08T12:41:56;4.43;;;4.13;;
15643;SDS011;7921;43.586;1.408;2022-12-08T12:44:35;4.27;;;3.90;;
15643;SDS011;7921;43.586;1.408;2022-12-08T12:47:03;4.53;;;4.10;;
15643;SDS011;7921;43.586;1.408;2022-12-08T12:49:49;4.57;;;3.90;;
15643;SDS011;7921;43.586;1.408;2022-12-08T12:55:17;5.53;;;3.80;;
15643;SDS011;7921;43.586;1.408;2022-12-08T12:57:39;4.40;;;4.00;;
15643;SDS011;7921;43.586;1.408;2022-12-08T13:00:18;4.10;;;3.17;;
15643;SDS011;7921;43.586;1.408;2022-12-08T13:02:46;3.73;;;3.43;;
15643;SDS011;7921;43.586;1.408;2022-12-08T13:07:54;3.83;;;3.53;;
15643;SDS011;7921;43.586;1.408;2022-12-08T13:10:34;3.60;;;3.30;;
15643;SDS011;7921;43.586;1.408;2022-12-08T13:15:46;4.60;;;4.20;;
15643;SDS011;7921;43.586;1.408;2022-12-08T13:18:55;3.80;;;3.50;;
15643;SDS011;7921;43.586;1.408;2022-12-08T13:26:21;4.73;;;4.33;;
15643;SDS011;7921;43.586;1.408;2022-12-08T13:43:23;4.37;;;4.07;;
15643;SDS011;7921;43.586;1.408;2022-12-08T13:45:25;4.60;;;4.20;;
15643;SDS011;7921;43.586;1.408;2022-12-08T13:47:53;4.57;;;4.17;;
15643;SDS011;7921;43.586;1.408;2022-12-08T13:50:27;4.43;;;4.03;;
15643;SDS011;7921;43.586;1.408;2022-12-08T13:53:14;5.03;;;4.53;;
15643;SDS011;7921;43.586;1.408;2022-12-08T13:55:43;4.43;;;4.10;;
15643;SDS011;7921;43.586;1.408;2022-12-08T13:58:18;4.30;;;4.00;;
15643;SDS011;7921;43.586;1.408;2022-12-08T14:00:56;4.37;;;4.07;;
15643;SDS011;7921;43.586;1.408;2022-12-08T14:03:26;4.70;;;4.30;;
15643;SDS011;7921;43.586;1.408;2022-12-08T14:05:51;5.03;;;4.63;;
15643;SDS011;7921;43.586;1.408;2022-12-08T14:08:24;4.67;;;4.27;;
15643;SDS011;7921;43.586;1.408;2022-12-08T14:11:02;4.03;;;3.63;;
15643;SDS011;7921;43.586;1.408;2022-12-08T14:13:29;5.03;;;4.53;;
15643;SDS011;7921;43.586;1.408;2022-12-08T14:15:56;4.10;;;3.70;;
15643;SDS011;7921;43.586;1.408;2022-12-08T14:18:23;4.53;;;4.13;;
15643;SDS011;7921;43.586;1.408;2022-12-08T14:21:04;4.53;;;4.13;;
15643;SDS011;7921;43.586;1.408;2022-12-08T14:23:34;5.00;;;4.60;;
15643;SDS011;7921;43.586;1.408;2022-12-08T14:26:00;4.37;;;4.03;;
15643;SDS011;7921;43.586;1.408;2022-12-08T14:28:26;4.73;;;4.33;;
15643;SDS011;7921;43.586;1.408;2022-12-08T14:30:51;4.60;;;4.30;;
15643;SDS011;7921;43.586;1.408;2022-12-08T14:33:19;4.50;;;4.13;;
15643;SDS011;7921;43.586;1.408;2022-12-08T14:35:48;4.70;;;4.30;;
15643;SDS011;7921;43.586;1.408;2022-12-08T14:38:16;4.90;;;4.50;;
15643;SDS011;7921;43.586;1.408;2022-12-08T14:40:43;4.87;;;4.47;;
15643;SDS011;7921;43.586;1.408;2022-12-08T14:43:15;4.13;;;3.83;;
15643;SDS011;7921;43.586;1.408;2022-12-08T14:51:13;4.77;;;4.37;;
15643;SDS011;7921;43.586;1.408;2022-12-08T14:53:47;4.97;;;4.47;;
15643;SDS011;7921;43.586;1.408;2022-12-08T14:56:26;5.50;;;4.90;;
15643;SDS011;7921;43.586;1.408;2022-12-08T15:01:42;4.83;;;4.43;;
15643;SDS011;7921;43.586;1.408;2022-12-08T15:06:36;4.90;;;4.40;;
15643;SDS011;7921;43.586;1.408;2022-12-08T15:09:13;5.10;;;4.70;;
15643;SDS011;7921;43.586;1.408;2022-12-08T15:11:58;5.43;;;5.00;;
15643;SDS011;7921;43.586;1.408;2022-12-08T15:14:27;6.03;;;5.50;;
15643;SDS011;7921;43.586;1.408;2022-12-08T15:17:33;5.63;;;5.13;;
15643;SDS011;7921;43.586;1.408;2022-12-08T15:20:00;6.13;;;5.43;;
15643;SDS011;7921;43.586;1.408;2022-12-08T15:22:26;4.90;;;4.50;;
15643;SDS011;7921;43.586;1.408;2022-12-08T15:24:52;5.90;;;5.30;;
15643;SDS011;7921;43.586;1.408;2022-12-08T15:27:18;5.70;;;5.20;;
15643;SDS011;7921;43.586;1.408;2022-12-08T15:29:46;6.07;;;5.40;;
15643;SDS011;7921;43.586;1.408;2022-12-08T15:32:12;7.70;;;5.33;;
15643;SDS011;7921;43.586;1.408;2022-12-08T15:34:41;5.47;;;5.07;;
15643;SDS011;7921;43.586;1.408;2022-12-08T15:40:01;5.60;;;5.10;;
15643;SDS011;7921;43.586;1.408;2022-12-08T15:42:27;6.07;;;5.47;;
15643;SDS011;7921;43.586;1.408;2022-12-08T15:44:52;6.67;;;5.33;;
15643;SDS011;7921;43.586;1.408;2022-12-08T15:47:18;6.13;;;5.53;;
15643;SDS011;7921;43.586;1.408;2022-12-08T15:49:45;6.47;;;4.97;;
15643;SDS011;7921;43.586;1.408;2022-12-08T15:52:12;6.20;;;5.37;;
15643;SDS011;7921;43.586;1.408;2022-12-08T15:54:40;7.27;;;5.77;;
15643;SDS011;7921;43.586;1.408;2022-12-08T15:57:05;6.17;;;5.57;;
15643;SDS011;7921;43.586;1.408;2022-12-08T15:59:31;6.40;;;5.83;;
15643;SDS011;7921;43.586;1.408;2022-12-08T16:01:56;5.90;;;5.40;;
15643;SDS011;7921;43.586;1.408;2022-12-08T16:04:22;5.63;;;5.13;;
15643;SDS011;7921;43.586;1.408;2022-12-08T16:06:48;6.60;;;6.07;;
15643;SDS011;7921;43.586;1.408;2022-12-08T16:09:18;7.00;;;6.40;;
15643;SDS011;7921;43.586;1.408;2022-12-08T16:11:46;7.07;;;6.47;;
15643;SDS011;7921;43.586;1.408;2022-12-08T16:14:30;7.00;;;6.30;;
15643;SDS011;7921;43.586;1.408;2022-12-08T16:16:55;7.57;;;6.40;;
15643;SDS011;7921;43.586;1.408;2022-12-08T16:19:21;6.47;;;5.97;;
15643;SDS011;7921;43.586;1.408;2022-12-08T16:21:47;6.30;;;5.70;;
15643;SDS011;7921;43.586;1.408;2022-12-08T16:24:12;8.97;;;8.00;;
15643;SDS011;7921;43.586;1.408;2022-12-08T16:26:37;6.60;;;6.00;;
15643;SDS011;7921;43.586;1.408;2022-12-08T16:29:03;6.77;;;6.07;;
15643;SDS011;7921;43.586;1.408;2022-12-08T16:31:29;6.20;;;5.67;;
15643;SDS011;7921;43.586;1.408;2022-12-08T16:33:55;6.53;;;5.93;;
15643;SDS011;7921;43.586;1.408;2022-12-08T16:36:20;6.90;;;5.80;;
15643;SDS011;7921;43.586;1.408;2022-12-08T16:38:45;5.53;;;5.10;;
15643;SDS011;7921;43.586;1.408;2022-12-08T16:41:12;6.73;;;6.13;;
15643;SDS011;7921;43.586;1.408;2022-12-08T16:43:59;7.37;;;6.77;;
15643;SDS011;7921;43.586;1.408;2022-12-08T16:46:25;7.00;;;6.30;;
15643;SDS011;7921;43.586;1.408;2022-12-08T16:48:52;7.47;;;6.77;;
15643;SDS011;7921;43.586;1.408;2022-12-08T16:51:18;7.43;;;6.77;;
15643;SDS011;7921;43.586;1.408;2022-12-08T16:53:44;9.07;;;8.23;;
15643;SDS011;7921;43.586;1.408;2022-12-08T16:56:15;10.90;;;9.80;;